Preview of NWS' New Version of Forecast
This preview is not operational and should not be used for support decisions.

Terminal Aerodrome Forecast (TAF)

Issued by National Weather Service (NWS)

                            
957 
FTUS42 KMFL 211456 AAA
TAFMIA
TAF AMD
KMIA 211456Z 2115/2218 10017KT P6SM FEW025 BKN035
     FM220000 08013KT P6SM FEW020 SCT040
     FM220300 09009KT P6SM SCT025 SCT030
     FM221500 09014KT P6SM SCT030=